sensor_id;sensor_type;location;lat;lon;timestamp;temperature;humidity
25332;DHT22;13284;52.748;13.452;2023-06-10T00:01:44;15.30;99.90
25332;DHT22;13284;52.748;13.452;2023-06-10T00:04:13;15.30;99.90
25332;DHT22;13284;52.748;13.452;2023-06-10T00:06:39;15.20;99.90
25332;DHT22;13284;52.748;13.452;2023-06-10T00:09:05;15.20;99.90
25332;DHT22;13284;52.748;13.452;2023-06-10T00:11:35;15.20;99.90
25332;DHT22;13284;52.748;13.452;2023-06-10T00:14:01;15.20;99.90
25332;DHT22;13284;52.748;13.452;2023-06-10T00:16:27;15.10;99.90
25332;DHT22;13284;52.748;13.452;2023-06-10T00:18:52;15.20;99.90
25332;DHT22;13284;52.748;13.452;2023-06-10T00:21:21;15.10;99.90
25332;DHT22;13284;52.748;13.452;2023-06-10T00:23:47;15.00;99.90
25332;DHT22;13284;52.748;13.452;2023-06-10T00:26:12;15.10;99.90
25332;DHT22;13284;52.748;13.452;2023-06-10T00:28:38;15.10;99.90
25332;DHT22;13284;52.748;13.452;2023-06-10T00:31:03;15.00;99.90
25332;DHT22;13284;52.748;13.452;2023-06-10T00:33:30;14.90;99.90
25332;DHT22;13284;52.748;13.452;2023-06-10T00:35:56;15.00;99.90
25332;DHT22;13284;52.748;13.452;2023-06-10T00:38:21;14.90;99.90
25332;DHT22;13284;52.748;13.452;2023-06-10T00:40:47;14.90;99.90
25332;DHT22;13284;52.748;13.452;2023-06-10T00:43:12;14.80;99.90
25332;DHT22;13284;52.748;13.452;2023-06-10T00:45:38;14.80;99.90
25332;DHT22;13284;52.748;13.452;2023-06-10T00:48:04;14.80;99.90
25332;DHT22;13284;52.748;13.452;2023-06-10T00:50:30;14.80;99.90
25332;DHT22;13284;52.748;13.452;2023-06-10T00:52:58;14.70;99.90
25332;DHT22;13284;52.748;13.452;2023-06-10T00:55:25;14.70;99.90
25332;DHT22;13284;52.748;13.452;2023-06-10T00:57:53;14.70;99.90
25332;DHT22;13284;52.748;13.452;2023-06-10T01:00:19;14.70;99.90
25332;DHT22;13284;52.748;13.452;2023-06-10T01:02:44;14.80;99.90
25332;DHT22;13284;52.748;13.452;2023-06-10T01:05:10;14.70;99.90
25332;DHT22;13284;52.748;13.452;2023-06-10T01:08:01;14.70;99.90
25332;DHT22;13284;52.748;13.452;2023-06-10T01:10:43;14.70;99.90
25332;DHT22;13284;52.748;13.452;2023-06-10T01:13:11;14.60;99.90
25332;DHT22;13284;52.748;13.452;2023-06-10T01:15:39;14.60;99.90
25332;DHT22;13284;52.748;13.452;2023-06-10T01:18:07;14.60;99.90
25332;DHT22;13284;52.748;13.452;2023-06-10T01:20:36;14.60;99.90
25332;DHT22;13284;52.748;13.452;2023-06-10T01:23:06;14.60;99.90
25332;DHT22;13284;52.748;13.452;2023-06-10T01:25:33;14.50;99.90
25332;DHT22;13284;52.748;13.452;2023-06-10T01:31:20;14.50;99.90
25332;DHT22;13284;52.748;13.452;2023-06-10T01:33:52;14.50;99.90
25332;DHT22;13284;52.748;13.452;2023-06-10T01:36:19;14.50;99.90
25332;DHT22;13284;52.748;13.452;2023-06-10T01:38:46;14.50;99.90
25332;DHT22;13284;52.748;13.452;2023-06-10T01:41:17;14.40;99.90
25332;DHT22;13284;52.748;13.452;2023-06-10T01:43:46;14.40;99.90
25332;DHT22;13284;52.748;13.452;2023-06-10T01:46:11;14.40;99.90
25332;DHT22;13284;52.748;13.452;2023-06-10T01:48:44;14.40;99.90
25332;DHT22;13284;52.748;13.452;2023-06-10T01:51:10;14.30;99.90
25332;DHT22;13284;52.748;13.452;2023-06-10T01:53:35;14.40;99.90
25332;DHT22;13284;52.748;13.452;2023-06-10T01:56:01;14.30;99.90
25332;DHT22;13284;52.748;13.452;2023-06-10T01:58:26;14.30;99.90
25332;DHT22;13284;52.748;13.452;2023-06-10T02:00:52;14.30;99.90
25332;DHT22;13284;52.748;13.452;2023-06-10T02:03:17;14.30;99.90
25332;DHT22;13284;52.748;13.452;2023-06-10T02:05:43;14.20;99.90
25332;DHT22;13284;52.748;13.452;2023-06-10T02:08:11;14.30;99.90
25332;DHT22;13284;52.748;13.452;2023-06-10T02:10:36;14.20;99.90
25332;DHT22;13284;52.748;13.452;2023-06-10T02:13:06;14.20;99.90
25332;DHT22;13284;52.748;13.452;2023-06-10T02:15:31;14.20;99.90
25332;DHT22;13284;52.748;13.452;2023-06-10T02:17:59;14.20;99.90
25332;DHT22;13284;52.748;13.452;2023-06-10T02:20:24;14.20;99.90
25332;DHT22;13284;52.748;13.452;2023-06-10T02:22:50;14.20;99.90
25332;DHT22;13284;52.748;13.452;2023-06-10T02:25:16;14.10;99.90
25332;DHT22;13284;52.748;13.452;2023-06-10T02:27:41;14.20;99.90
25332;DHT22;13284;52.748;13.452;2023-06-10T02:30:07;14.10;99.90
25332;DHT22;13284;52.748;13.452;2023-06-10T02:32:35;14.10;99.90
25332;DHT22;13284;52.748;13.452;2023-06-10T02:35:00;14.10;99.90
25332;DHT22;13284;52.748;13.452;2023-06-10T02:37:26;14.20;99.90
25332;DHT22;13284;52.748;13.452;2023-06-10T02:39:52;14.10;99.90
25332;DHT22;13284;52.748;13.452;2023-06-10T02:42:17;14.10;99.90
25332;DHT22;13284;52.748;13.452;2023-06-10T02:44:45;14.00;99.90
25332;DHT22;13284;52.748;13.452;2023-06-10T02:47:11;14.10;99.90
25332;DHT22;13284;52.748;13.452;2023-06-10T02:49:36;14.20;99.90
25332;DHT22;13284;52.748;13.452;2023-06-10T02:52:02;14.00;99.90
25332;DHT22;13284;52.748;13.452;2023-06-10T02:54:28;14.00;99.90
25332;DHT22;13284;52.748;13.452;2023-06-10T02:56:53;14.00;99.90
25332;DHT22;13284;52.748;13.452;2023-06-10T02:59:21;14.00;99.90
25332;DHT22;13284;52.748;13.452;2023-06-10T03:01:47;14.00;99.90
25332;DHT22;13284;52.748;13.452;2023-06-10T03:04:12;14.00;99.90
25332;DHT22;13284;52.748;13.452;2023-06-10T03:06:40;14.00;99.90
25332;DHT22;13284;52.748;13.452;2023-06-10T03:09:06;14.00;99.90
25332;DHT22;13284;52.748;13.452;2023-06-10T03:11:33;14.00;99.90
25332;DHT22;13284;52.748;13.452;2023-06-10T03:13:58;13.90;99.90
25332;DHT22;13284;52.748;13.452;2023-06-10T03:16:24;14.00;99.90
25332;DHT22;13284;52.748;13.452;2023-06-10T03:18:53;14.00;99.90
25332;DHT22;13284;52.748;13.452;2023-06-10T03:21:19;14.10;99.90
25332;DHT22;13284;52.748;13.452;2023-06-10T03:23:45;14.00;99.90
25332;DHT22;13284;52.748;13.452;2023-06-10T03:26:11;13.90;99.90
25332;DHT22;13284;52.748;13.452;2023-06-10T03:28:38;14.00;99.90
25332;DHT22;13284;52.748;13.452;2023-06-10T03:31:03;14.00;99.90
25332;DHT22;13284;52.748;13.452;2023-06-10T03:33:29;14.00;99.90
25332;DHT22;13284;52.748;13.452;2023-06-10T03:35:58;14.00;99.90
25332;DHT22;13284;52.748;13.452;2023-06-10T03:38:24;14.00;99.90
25332;DHT22;13284;52.748;13.452;2023-06-10T03:40:49;14.00;99.90
25332;DHT22;13284;52.748;13.452;2023-06-10T03:43:15;14.00;99.90
25332;DHT22;13284;52.748;13.452;2023-06-10T03:45:40;14.10;99.90
25332;DHT22;13284;52.748;13.452;2023-06-10T03:48:06;14.20;99.90
25332;DHT22;13284;52.748;13.452;2023-06-10T03:50:34;14.30;99.90
25332;DHT22;13284;52.748;13.452;2023-06-10T03:52:59;14.20;99.90
25332;DHT22;13284;52.748;13.452;2023-06-10T03:55:25;14.10;99.90
25332;DHT22;13284;52.748;13.452;2023-06-10T03:57:51;14.20;99.90
25332;DHT22;13284;52.748;13.452;2023-06-10T04:00:16;14.20;99.90
25332;DHT22;13284;52.748;13.452;2023-06-10T04:02:43;14.20;99.90
25332;DHT22;13284;52.748;13.452;2023-06-10T04:05:12;14.20;99.90
25332;DHT22;13284;52.748;13.452;2023-06-10T04:07:39;14.30;99.90
25332;DHT22;13284;52.748;13.452;2023-06-10T04:10:06;14.40;99.90
25332;DHT22;13284;52.748;13.452;2023-06-10T04:12:32;14.40;99.90
25332;DHT22;13284;52.748;13.452;2023-06-10T04:14:58;14.40;99.90
25332;DHT22;13284;52.748;13.452;2023-06-10T04:17:23;14.50;99.90
25332;DHT22;13284;52.748;13.452;2023-06-10T04:19:49;14.50;99.90
25332;DHT22;13284;52.748;13.452;2023-06-10T04:22:16;14.60;99.90
25332;DHT22;13284;52.748;13.452;2023-06-10T04:24:42;14.50;99.90
25332;DHT22;13284;52.748;13.452;2023-06-10T04:27:08;14.60;99.90
25332;DHT22;13284;52.748;13.452;2023-06-10T04:29:33;14.60;99.90
25332;DHT22;13284;52.748;13.452;2023-06-10T04:31:59;14.70;99.90
25332;DHT22;13284;52.748;13.452;2023-06-10T04:34:26;14.80;99.90
25332;DHT22;13284;52.748;13.452;2023-06-10T04:36:52;15.00;99.90
25332;DHT22;13284;52.748;13.452;2023-06-10T04:39:18;15.10;99.90
25332;DHT22;13284;52.748;13.452;2023-06-10T04:41:43;15.20;99.90
25332;DHT22;13284;52.748;13.452;2023-06-10T04:44:09;15.20;99.90
25332;DHT22;13284;52.748;13.452;2023-06-10T04:46:36;15.20;99.90
25332;DHT22;13284;52.748;13.452;2023-06-10T04:49:02;15.20;99.90
25332;DHT22;13284;52.748;13.452;2023-06-10T04:51:28;15.20;99.90
25332;DHT22;13284;52.748;13.452;2023-06-10T04:53:53;15.20;99.90
25332;DHT22;13284;52.748;13.452;2023-06-10T04:56:19;15.20;99.90
25332;DHT22;13284;52.748;13.452;2023-06-10T04:58:45;15.30;99.90
25332;DHT22;13284;52.748;13.452;2023-06-10T05:01:11;15.50;99.90
25332;DHT22;13284;52.748;13.452;2023-06-10T05:03:36;15.80;99.90
25332;DHT22;13284;52.748;13.452;2023-06-10T05:06:02;16.10;99.90
25332;DHT22;13284;52.748;13.452;2023-06-10T05:08:27;16.40;99.90
25332;DHT22;13284;52.748;13.452;2023-06-10T05:10:53;16.60;99.90
25332;DHT22;13284;52.748;13.452;2023-06-10T05:13:18;16.90;99.90
25332;DHT22;13284;52.748;13.452;2023-06-10T05:15:44;17.30;99.90
25332;DHT22;13284;52.748;13.452;2023-06-10T05:18:11;17.50;99.90
25332;DHT22;13284;52.748;13.452;2023-06-10T05:20:38;17.70;99.90
25332;DHT22;13284;52.748;13.452;2023-06-10T05:23:03;17.90;99.90
25332;DHT22;13284;52.748;13.452;2023-06-10T05:25:31;17.90;99.90
25332;DHT22;13284;52.748;13.452;2023-06-10T05:27:58;18.00;99.90
25332;DHT22;13284;52.748;13.452;2023-06-10T05:30:24;18.10;99.90
25332;DHT22;13284;52.748;13.452;2023-06-10T05:32:50;18.10;99.90
25332;DHT22;13284;52.748;13.452;2023-06-10T05:35:17;18.20;99.90
25332;DHT22;13284;52.748;13.452;2023-06-10T05:37:42;18.30;99.90
25332;DHT22;13284;52.748;13.452;2023-06-10T05:40:09;18.30;99.90
25332;DHT22;13284;52.748;13.452;2023-06-10T05:42:35;18.40;99.90
25332;DHT22;13284;52.748;13.452;2023-06-10T05:45:00;18.30;99.90
25332;DHT22;13284;52.748;13.452;2023-06-10T05:47:26;18.40;99.90
25332;DHT22;13284;52.748;13.452;2023-06-10T05:49:51;18.70;99.90
25332;DHT22;13284;52.748;13.452;2023-06-10T05:52:17;18.90;99.90
25332;DHT22;13284;52.748;13.452;2023-06-10T05:54:43;19.20;99.90
25332;DHT22;13284;52.748;13.452;2023-06-10T05:57:09;19.30;99.90
25332;DHT22;13284;52.748;13.452;2023-06-10T05:59:35;19.40;99.90
25332;DHT22;13284;52.748;13.452;2023-06-10T06:02:01;19.50;99.90
25332;DHT22;13284;52.748;13.452;2023-06-10T06:04:26;19.30;99.90
25332;DHT22;13284;52.748;13.452;2023-06-10T06:06:52;19.50;99.90
25332;DHT22;13284;52.748;13.452;2023-06-10T06:09:18;19.80;99.90
25332;DHT22;13284;52.748;13.452;2023-06-10T06:11:43;20.10;99.90
25332;DHT22;13284;52.748;13.452;2023-06-10T06:14:09;20.20;99.90
25332;DHT22;13284;52.748;13.452;2023-06-10T06:16:34;20.50;99.90
25332;DHT22;13284;52.748;13.452;2023-06-10T06:19:02;20.50;99.90
25332;DHT22;13284;52.748;13.452;2023-06-10T06:21:28;20.60;99.90
25332;DHT22;13284;52.748;13.452;2023-06-10T06:23:53;20.90;99.90
25332;DHT22;13284;52.748;13.452;2023-06-10T06:26:18;21.00;99.90
25332;DHT22;13284;52.748;13.452;2023-06-10T06:28:44;21.20;99.90
25332;DHT22;13284;52.748;13.452;2023-06-10T06:31:10;21.10;99.90
25332;DHT22;13284;52.748;13.452;2023-06-10T06:33:35;21.20;99.90
25332;DHT22;13284;52.748;13.452;2023-06-10T06:36:01;21.30;99.90
25332;DHT22;13284;52.748;13.452;2023-06-10T06:38:26;21.30;99.90
25332;DHT22;13284;52.748;13.452;2023-06-10T06:40:52;21.10;99.90
25332;DHT22;13284;52.748;13.452;2023-06-10T06:43:21;21.20;99.90
25332;DHT22;13284;52.748;13.452;2023-06-10T06:45:46;21.50;99.90
25332;DHT22;13284;52.748;13.452;2023-06-10T06:48:12;21.70;99.90
25332;DHT22;13284;52.748;13.452;2023-06-10T06:50:37;21.40;99.90
25332;DHT22;13284;52.748;13.452;2023-06-10T06:53:04;21.30;99.90
25332;DHT22;13284;52.748;13.452;2023-06-10T06:55:29;21.30;99.90
25332;DHT22;13284;52.748;13.452;2023-06-10T06:57:55;21.40;99.90
25332;DHT22;13284;52.748;13.452;2023-06-10T07:00:21;21.30;99.90
25332;DHT22;13284;52.748;13.452;2023-06-10T07:02:47;21.60;99.90
25332;DHT22;13284;52.748;13.452;2023-06-10T07:05:12;21.80;99.90
25332;DHT22;13284;52.748;13.452;2023-06-10T07:07:38;22.00;99.90
25332;DHT22;13284;52.748;13.452;2023-06-10T07:10:04;21.90;99.90
25332;DHT22;13284;52.748;13.452;2023-06-10T07:12:29;22.10;99.90
25332;DHT22;13284;52.748;13.452;2023-06-10T07:14:55;22.10;99.90
25332;DHT22;13284;52.748;13.452;2023-06-10T07:17:20;22.00;99.90
25332;DHT22;13284;52.748;13.452;2023-06-10T07:19:46;21.70;99.90
25332;DHT22;13284;52.748;13.452;2023-06-10T07:22:11;21.40;99.90
25332;DHT22;13284;52.748;13.452;2023-06-10T07:24:40;21.50;99.90
25332;DHT22;13284;52.748;13.452;2023-06-10T07:27:08;22.00;99.90
25332;DHT22;13284;52.748;13.452;2023-06-10T07:29:35;22.10;99.90
25332;DHT22;13284;52.748;13.452;2023-06-10T07:32:02;22.70;99.90
25332;DHT22;13284;52.748;13.452;2023-06-10T07:34:28;22.80;99.90
25332;DHT22;13284;52.748;13.452;2023-06-10T07:36:53;22.80;99.90
25332;DHT22;13284;52.748;13.452;2023-06-10T07:39:19;22.60;99.90
25332;DHT22;13284;52.748;13.452;2023-06-10T07:41:44;22.60;99.90
25332;DHT22;13284;52.748;13.452;2023-06-10T07:44:10;22.20;99.90
25332;DHT22;13284;52.748;13.452;2023-06-10T07:46:35;22.30;99.90
25332;DHT22;13284;52.748;13.452;2023-06-10T07:49:01;22.10;99.90
25332;DHT22;13284;52.748;13.452;2023-06-10T07:51:31;22.30;99.90
25332;DHT22;13284;52.748;13.452;2023-06-10T07:53:58;22.30;99.90
25332;DHT22;13284;52.748;13.452;2023-06-10T07:56:27;22.50;99.90
25332;DHT22;13284;52.748;13.452;2023-06-10T07:58:54;22.40;99.90
25332;DHT22;13284;52.748;13.452;2023-06-10T08:01:19;22.10;99.90
25332;DHT22;13284;52.748;13.452;2023-06-10T08:03:45;22.00;99.90
25332;DHT22;13284;52.748;13.452;2023-06-10T08:06:11;21.90;99.90
25332;DHT22;13284;52.748;13.452;2023-06-10T08:08:37;21.90;99.90
25332;DHT22;13284;52.748;13.452;2023-06-10T08:11:11;21.90;99.90
25332;DHT22;13284;52.748;13.452;2023-06-10T08:13:38;21.90;99.90
25332;DHT22;13284;52.748;13.452;2023-06-10T08:16:04;22.00;99.90
25332;DHT22;13284;52.748;13.452;2023-06-10T08:18:29;21.70;99.90
25332;DHT22;13284;52.748;13.452;2023-06-10T08:20:55;21.90;99.90
25332;DHT22;13284;52.748;13.452;2023-06-10T08:23:21;21.70;99.90
25332;DHT22;13284;52.748;13.452;2023-06-10T08:25:46;21.70;99.90
25332;DHT22;13284;52.748;13.452;2023-06-10T08:28:12;21.70;99.90
25332;DHT22;13284;52.748;13.452;2023-06-10T08:30:37;21.70;99.90
25332;DHT22;13284;52.748;13.452;2023-06-10T08:33:03;21.70;99.90
25332;DHT22;13284;52.748;13.452;2023-06-10T08:35:29;22.10;99.90
25332;DHT22;13284;52.748;13.452;2023-06-10T08:37:54;22.10;99.90
25332;DHT22;13284;52.748;13.452;2023-06-10T08:40:20;22.00;99.90
25332;DHT22;13284;52.748;13.452;2023-06-10T08:42:57;22.00;99.90
25332;DHT22;13284;52.748;13.452;2023-06-10T08:45:30;21.70;99.90
25332;DHT22;13284;52.748;13.452;2023-06-10T08:48:02;22.00;99.90
25332;DHT22;13284;52.748;13.452;2023-06-10T08:50:29;22.10;99.90
25332;DHT22;13284;52.748;13.452;2023-06-10T08:52:57;21.70;99.90
25332;DHT22;13284;52.748;13.452;2023-06-10T08:55:29;21.60;99.90
25332;DHT22;13284;52.748;13.452;2023-06-10T08:57:56;21.50;99.90
25332;DHT22;13284;52.748;13.452;2023-06-10T09:00:22;21.50;99.90
25332;DHT22;13284;52.748;13.452;2023-06-10T09:02:48;21.50;99.90
25332;DHT22;13284;52.748;13.452;2023-06-10T09:05:15;21.60;99.90
25332;DHT22;13284;52.748;13.452;2023-06-10T09:07:41;21.60;99.90
25332;DHT22;13284;52.748;13.452;2023-06-10T09:10:07;21.80;99.90
25332;DHT22;13284;52.748;13.452;2023-06-10T09:12:33;21.80;99.90
25332;DHT22;13284;52.748;13.452;2023-06-10T09:15:01;21.60;99.90
25332;DHT22;13284;52.748;13.452;2023-06-10T09:17:27;21.70;99.90
25332;DHT22;13284;52.748;13.452;2023-06-10T09:19:53;21.70;99.90
25332;DHT22;13284;52.748;13.452;2023-06-10T09:22:24;21.70;99.90
25332;DHT22;13284;52.748;13.452;2023-06-10T09:25:01;21.60;99.90
25332;DHT22;13284;52.748;13.452;2023-06-10T09:27:30;21.60;99.90
25332;DHT22;13284;52.748;13.452;2023-06-10T09:29:57;21.80;99.90
25332;DHT22;13284;52.748;13.452;2023-06-10T09:32:23;21.70;99.90
25332;DHT22;13284;52.748;13.452;2023-06-10T09:34:49;21.80;99.90
25332;DHT22;13284;52.748;13.452;2023-06-10T09:37:23;22.00;99.90
25332;DHT22;13284;52.748;13.452;2023-06-10T09:40:05;22.10;99.90
25332;DHT22;13284;52.748;13.452;2023-06-10T09:42:39;21.80;99.90
25332;DHT22;13284;52.748;13.452;2023-06-10T09:45:05;21.70;99.90
25332;DHT22;13284;52.748;13.452;2023-06-10T09:47:34;21.50;99.90
25332;DHT22;13284;52.748;13.452;2023-06-10T09:50:00;21.50;99.90
25332;DHT22;13284;52.748;13.452;2023-06-10T09:52:28;21.20;99.90
25332;DHT22;13284;52.748;13.452;2023-06-10T09:54:59;21.30;99.90
25332;DHT22;13284;52.748;13.452;2023-06-10T09:57:26;21.10;99.90
25332;DHT22;13284;52.748;13.452;2023-06-10T09:59:55;21.10;99.90
25332;DHT22;13284;52.748;13.452;2023-06-10T10:02:21;21.00;99.90
25332;DHT22;13284;52.748;13.452;2023-06-10T10:04:47;21.10;99.90
25332;DHT22;13284;52.748;13.452;2023-06-10T10:07:13;21.00;99.90
25332;DHT22;13284;52.748;13.452;2023-06-10T10:09:39;21.00;99.90
25332;DHT22;13284;52.748;13.452;2023-06-10T10:12:11;20.90;99.90
25332;DHT22;13284;52.748;13.452;2023-06-10T10:14:38;20.90;99.90
25332;DHT22;13284;52.748;13.452;2023-06-10T10:17:11;20.90;99.90
25332;DHT22;13284;52.748;13.452;2023-06-10T10:19:48;20.80;99.90
25332;DHT22;13284;52.748;13.452;2023-06-10T10:22:25;20.70;99.90
25332;DHT22;13284;52.748;13.452;2023-06-10T10:25:02;20.70;99.90
25332;DHT22;13284;52.748;13.452;2023-06-10T10:27:33;20.50;99.90
25332;DHT22;13284;52.748;13.452;2023-06-10T10:29:59;20.40;99.90
25332;DHT22;13284;52.748;13.452;2023-06-10T10:32:32;20.40;99.90
25332;DHT22;13284;52.748;13.452;2023-06-10T10:35:08;20.70;99.90
25332;DHT22;13284;52.748;13.452;2023-06-10T10:37:35;20.70;99.90
25332;DHT22;13284;52.748;13.452;2023-06-10T10:40:02;20.80;99.90
25332;DHT22;13284;52.748;13.452;2023-06-10T10:42:29;20.60;99.90
25332;DHT22;13284;52.748;13.452;2023-06-10T10:44:55;20.80;99.90
25332;DHT22;13284;52.748;13.452;2023-06-10T10:47:21;21.00;99.90
25332;DHT22;13284;52.748;13.452;2023-06-10T10:49:50;20.80;99.90
25332;DHT22;13284;52.748;13.452;2023-06-10T10:52:16;20.70;99.90
25332;DHT22;13284;52.748;13.452;2023-06-10T10:54:46;20.90;99.90
25332;DHT22;13284;52.748;13.452;2023-06-10T10:57:15;20.90;99.90
25332;DHT22;13284;52.748;13.452;2023-06-10T10:59:57;21.10;99.90
25332;DHT22;13284;52.748;13.452;2023-06-10T11:02:44;21.00;99.90
25332;DHT22;13284;52.748;13.452;2023-06-10T11:05:14;21.10;99.90
25332;DHT22;13284;52.748;13.452;2023-06-10T11:07:41;21.10;99.90
25332;DHT22;13284;52.748;13.452;2023-06-10T11:10:17;21.00;99.90
25332;DHT22;13284;52.748;13.452;2023-06-10T11:15:18;21.10;99.90
25332;DHT22;13284;52.748;13.452;2023-06-10T11:18:12;21.20;99.90
25332;DHT22;13284;52.748;13.452;2023-06-10T11:31:20;22.70;99.90
25332;DHT22;13284;52.748;13.452;2023-06-10T11:33:47;23.10;99.90
25332;DHT22;13284;52.748;13.452;2023-06-10T11:36:14;23.60;99.90
25332;DHT22;13284;52.748;13.452;2023-06-10T11:38:40;23.90;99.90
25332;DHT22;13284;52.748;13.452;2023-06-10T11:41:06;24.10;99.90
25332;DHT22;13284;52.748;13.452;2023-06-10T11:43:33;24.90;99.90
25332;DHT22;13284;52.748;13.452;2023-06-10T11:45:59;25.60;99.90
25332;DHT22;13284;52.748;13.452;2023-06-10T11:48:25;25.90;99.90
25332;DHT22;13284;52.748;13.452;2023-06-10T11:50:53;25.80;99.90
25332;DHT22;13284;52.748;13.452;2023-06-10T11:53:19;26.10;99.90
25332;DHT22;13284;52.748;13.452;2023-06-10T11:55:46;27.00;99.90
25332;DHT22;13284;52.748;13.452;2023-06-10T11:58:20;27.50;99.90
25332;DHT22;13284;52.748;13.452;2023-06-10T12:00:50;27.60;99.90
25332;DHT22;13284;52.748;13.452;2023-06-10T12:03:17;27.80;99.90
25332;DHT22;13284;52.748;13.452;2023-06-10T12:05:59;28.10;99.90
25332;DHT22;13284;52.748;13.452;2023-06-10T12:08:26;28.10;99.90
25332;DHT22;13284;52.748;13.452;2023-06-10T12:10:51;28.30;99.90
25332;DHT22;13284;52.748;13.452;2023-06-10T12:13:17;29.20;99.90
25332;DHT22;13284;52.748;13.452;2023-06-10T12:15:46;29.40;99.90
25332;DHT22;13284;52.748;13.452;2023-06-10T12:18:19;28.50;99.90
25332;DHT22;13284;52.748;13.452;2023-06-10T12:20:45;28.70;99.90
25332;DHT22;13284;52.748;13.452;2023-06-10T12:23:12;28.70;99.90
25332;DHT22;13284;52.748;13.452;2023-06-10T12:25:38;29.00;99.90
25332;DHT22;13284;52.748;13.452;2023-06-10T12:28:05;29.80;99.90
25332;DHT22;13284;52.748;13.452;2023-06-10T12:30:31;30.20;99.90
25332;DHT22;13284;52.748;13.452;2023-06-10T12:32:57;30.20;99.90
25332;DHT22;13284;52.748;13.452;2023-06-10T12:35:26;30.10;99.90
25332;DHT22;13284;52.748;13.452;2023-06-10T12:38:04;30.60;99.90
25332;DHT22;13284;52.748;13.452;2023-06-10T12:40:36;30.40;99.90
25332;DHT22;13284;52.748;13.452;2023-06-10T12:43:02;30.50;99.90
25332;DHT22;13284;52.748;13.452;2023-06-10T12:45:33;29.90;99.90
25332;DHT22;13284;52.748;13.452;2023-06-10T12:48:12;30.50;99.90
25332;DHT22;13284;52.748;13.452;2023-06-10T12:50:42;30.60;99.90
25332;DHT22;13284;52.748;13.452;2023-06-10T12:53:10;30.50;99.90
25332;DHT22;13284;52.748;13.452;2023-06-10T12:55:39;30.50;99.90
25332;DHT22;13284;52.748;13.452;2023-06-10T12:58:05;30.10;99.90
25332;DHT22;13284;52.748;13.452;2023-06-10T13:00:30;30.00;99.90
25332;DHT22;13284;52.748;13.452;2023-06-10T13:02:57;29.50;99.90
25332;DHT22;13284;52.748;13.452;2023-06-10T13:05:23;29.70;99.90
25332;DHT22;13284;52.748;13.452;2023-06-10T13:07:49;30.10;99.90
25332;DHT22;13284;52.748;13.452;2023-06-10T13:10:16;30.50;99.90
25332;DHT22;13284;52.748;13.452;2023-06-10T13:12:43;31.00;99.90
25332;DHT22;13284;52.748;13.452;2023-06-10T13:15:09;30.40;99.70
25332;DHT22;13284;52.748;13.452;2023-06-10T13:17:34;30.40;99.70
25332;DHT22;13284;52.748;13.452;2023-06-10T13:20:04;30.20;99.40
25332;DHT22;13284;52.748;13.452;2023-06-10T13:22:31;30.30;99.20
25332;DHT22;13284;52.748;13.452;2023-06-10T13:24:58;30.00;98.60
25332;DHT22;13284;52.748;13.452;2023-06-10T13:27:24;30.20;99.70
25332;DHT22;13284;52.748;13.452;2023-06-10T13:29:50;30.40;98.80
25332;DHT22;13284;52.748;13.452;2023-06-10T13:32:15;30.60;97.00
25332;DHT22;13284;52.748;13.452;2023-06-10T13:34:41;30.60;97.40
25332;DHT22;13284;52.748;13.452;2023-06-10T13:37:06;30.50;97.00
25332;DHT22;13284;52.748;13.452;2023-06-10T13:39:32;30.50;97.60
25332;DHT22;13284;52.748;13.452;2023-06-10T13:41:57;30.70;97.30
25332;DHT22;13284;52.748;13.452;2023-06-10T13:44:23;30.20;96.40
25332;DHT22;13284;52.748;13.452;2023-06-10T13:46:48;29.90;96.80
25332;DHT22;13284;52.748;13.452;2023-06-10T13:49:14;28.90;99.90
25332;DHT22;13284;52.748;13.452;2023-06-10T13:51:39;28.20;99.90
25332;DHT22;13284;52.748;13.452;2023-06-10T13:54:05;27.90;99.90
25332;DHT22;13284;52.748;13.452;2023-06-10T13:56:30;27.50;99.90
25332;DHT22;13284;52.748;13.452;2023-06-10T13:58:56;27.00;99.90
25332;DHT22;13284;52.748;13.452;2023-06-10T14:01:22;26.70;99.90
25332;DHT22;13284;52.748;13.452;2023-06-10T14:03:47;26.30;99.90
25332;DHT22;13284;52.748;13.452;2023-06-10T14:06:13;26.20;99.90
25332;DHT22;13284;52.748;13.452;2023-06-10T14:08:43;26.00;99.90
25332;DHT22;13284;52.748;13.452;2023-06-10T14:11:09;25.90;99.90
25332;DHT22;13284;52.748;13.452;2023-06-10T14:13:34;25.90;99.90
25332;DHT22;13284;52.748;13.452;2023-06-10T14:16:00;25.90;99.90
25332;DHT22;13284;52.748;13.452;2023-06-10T14:18:28;25.90;99.90
25332;DHT22;13284;52.748;13.452;2023-06-10T14:20:53;26.00;99.90
25332;DHT22;13284;52.748;13.452;2023-06-10T14:23:19;26.00;99.90
25332;DHT22;13284;52.748;13.452;2023-06-10T14:25:44;26.10;99.90
25332;DHT22;13284;52.748;13.452;2023-06-10T14:28:10;26.10;99.90
25332;DHT22;13284;52.748;13.452;2023-06-10T14:30:35;26.10;99.90
25332;DHT22;13284;52.748;13.452;2023-06-10T14:33:01;26.10;99.90
25332;DHT22;13284;52.748;13.452;2023-06-10T14:35:26;26.10;99.90
25332;DHT22;13284;52.748;13.452;2023-06-10T14:37:52;26.10;99.90
25332;DHT22;13284;52.748;13.452;2023-06-10T14:40:17;26.30;99.90
25332;DHT22;13284;52.748;13.452;2023-06-10T14:42:43;26.70;99.90
25332;DHT22;13284;52.748;13.452;2023-06-10T14:45:08;26.90;99.90
25332;DHT22;13284;52.748;13.452;2023-06-10T14:47:35;26.90;99.90
25332;DHT22;13284;52.748;13.452;2023-06-10T14:50:00;27.00;99.90
25332;DHT22;13284;52.748;13.452;2023-06-10T14:52:26;27.10;99.90
25332;DHT22;13284;52.748;13.452;2023-06-10T14:54:52;26.80;99.90
25332;DHT22;13284;52.748;13.452;2023-06-10T14:57:17;26.70;99.90
25332;DHT22;13284;52.748;13.452;2023-06-10T14:59:43;26.60;99.90
25332;DHT22;13284;52.748;13.452;2023-06-10T15:02:08;26.50;99.90
25332;DHT22;13284;52.748;13.452;2023-06-10T15:04:34;26.50;99.90
25332;DHT22;13284;52.748;13.452;2023-06-10T15:07:00;26.40;99.90
25332;DHT22;13284;52.748;13.452;2023-06-10T15:09:25;26.30;99.90
25332;DHT22;13284;52.748;13.452;2023-06-10T15:11:51;26.30;99.90
25332;DHT22;13284;52.748;13.452;2023-06-10T15:14:16;26.10;99.90
25332;DHT22;13284;52.748;13.452;2023-06-10T15:16:42;26.00;99.90
25332;DHT22;13284;52.748;13.452;2023-06-10T15:19:08;26.10;99.90
25332;DHT22;13284;52.748;13.452;2023-06-10T15:21:35;25.90;99.90
25332;DHT22;13284;52.748;13.452;2023-06-10T15:24:01;25.90;99.90
25332;DHT22;13284;52.748;13.452;2023-06-10T15:26:27;26.00;99.90
25332;DHT22;13284;52.748;13.452;2023-06-10T15:28:53;26.20;99.90
25332;DHT22;13284;52.748;13.452;2023-06-10T15:31:18;26.40;99.90